sensor_id;sensor_type;location;lat;lon;timestamp;pressure;altitude;pressure_sealevel;temperature
71640;BMP280;60912;48.968;10.124;2022-07-21T00:00:31;96895.69;;;22.05
71640;BMP280;60912;48.968;10.124;2022-07-21T00:02:56;96901.06;;;22.01
71640;BMP280;60912;48.968;10.124;2022-07-21T00:05:23;96898.41;;;22.03
71640;BMP280;60912;48.968;10.124;2022-07-21T00:07:49;96901.72;;;21.99
71640;BMP280;60912;48.968;10.124;2022-07-21T00:10:15;96896.72;;;21.98
71640;BMP280;60912;48.968;10.124;2022-07-21T00:12:41;96914.25;;;22.10
71640;BMP280;60912;48.968;10.124;2022-07-21T00:15:07;96920.19;;;22.16
71640;BMP280;60912;48.968;10.124;2022-07-21T00:17:33;96929.94;;;22.15
71640;BMP280;60912;48.968;10.124;2022-07-21T00:19:59;96936.59;;;22.08
71640;BMP280;60912;48.968;10.124;2022-07-21T00:22:24;96948.31;;;22.04
71640;BMP280;60912;48.968;10.124;2022-07-21T00:24:50;96946.53;;;21.85
71640;BMP280;60912;48.968;10.124;2022-07-21T00:27:15;96959.56;;;21.67
71640;BMP280;60912;48.968;10.124;2022-07-21T00:29:42;96958.69;;;21.76
71640;BMP280;60912;48.968;10.124;2022-07-21T00:32:07;96952.94;;;21.74
71640;BMP280;60912;48.968;10.124;2022-07-21T00:34:33;96948.31;;;21.79
71640;BMP280;60912;48.968;10.124;2022-07-21T00:36:58;96938.59;;;21.68
71640;BMP280;60912;48.968;10.124;2022-07-21T00:39:24;96939.13;;;21.53
71640;BMP280;60912;48.968;10.124;2022-07-21T00:41:49;96941.72;;;21.49
71640;BMP280;60912;48.968;10.124;2022-07-21T00:44:23;96943.09;;;21.62
71640;BMP280;60912;48.968;10.124;2022-07-21T00:46:49;96957.88;;;21.62
71640;BMP280;60912;48.968;10.124;2022-07-21T00:49:15;96960.34;;;21.56
71640;BMP280;60912;48.968;10.124;2022-07-21T00:51:40;96968.28;;;21.60
71640;BMP280;60912;48.968;10.124;2022-07-21T00:54:06;96972.31;;;21.57
71640;BMP280;60912;48.968;10.124;2022-07-21T00:56:31;96981.19;;;21.65
71640;BMP280;60912;48.968;10.124;2022-07-21T00:58:57;96987.03;;;21.69
71640;BMP280;60912;48.968;10.124;2022-07-21T01:01:22;96989.66;;;21.78
71640;BMP280;60912;48.968;10.124;2022-07-21T01:03:48;96978.38;;;21.90
71640;BMP280;60912;48.968;10.124;2022-07-21T01:06:14;96980.69;;;21.93
71640;BMP280;60912;48.968;10.124;2022-07-21T01:08:39;96984.22;;;21.94
71640;BMP280;60912;48.968;10.124;2022-07-21T01:11:05;96988.78;;;21.87
71640;BMP280;60912;48.968;10.124;2022-07-21T01:13:31;96994.16;;;21.83
71640;BMP280;60912;48.968;10.124;2022-07-21T01:15:56;97004.41;;;21.79
71640;BMP280;60912;48.968;10.124;2022-07-21T01:18:22;96993.44;;;21.83
71640;BMP280;60912;48.968;10.124;2022-07-21T01:20:54;96985.84;;;21.85
71640;BMP280;60912;48.968;10.124;2022-07-21T01:23:21;96981.97;;;21.79
71640;BMP280;60912;48.968;10.124;2022-07-21T01:25:48;96990.38;;;21.79
71640;BMP280;60912;48.968;10.124;2022-07-21T01:28:14;97009.06;;;21.74
71640;BMP280;60912;48.968;10.124;2022-07-21T01:30:39;96993.94;;;21.79
71640;BMP280;60912;48.968;10.124;2022-07-21T01:33:05;96976.44;;;21.92
71640;BMP280;60912;48.968;10.124;2022-07-21T01:35:30;96965.53;;;21.99
71640;BMP280;60912;48.968;10.124;2022-07-21T01:37:57;96966.19;;;21.85
71640;BMP280;60912;48.968;10.124;2022-07-21T01:40:23;96982.72;;;21.79
71640;BMP280;60912;48.968;10.124;2022-07-21T01:43:07;96983.34;;;21.66
71640;BMP280;60912;48.968;10.124;2022-07-21T01:45:32;96997.38;;;21.66
71640;BMP280;60912;48.968;10.124;2022-07-21T01:47:57;96997.50;;;21.68
71640;BMP280;60912;48.968;10.124;2022-07-21T01:50:24;96996.88;;;21.70
71640;BMP280;60912;48.968;10.124;2022-07-21T01:52:53;96998.69;;;21.77
71640;BMP280;60912;48.968;10.124;2022-07-21T01:55:20;96993.31;;;21.81
71640;BMP280;60912;48.968;10.124;2022-07-21T01:57:45;96977.78;;;21.91
71640;BMP280;60912;48.968;10.124;2022-07-21T02:00:11;96969.19;;;22.01
71640;BMP280;60912;48.968;10.124;2022-07-21T02:02:36;96969.31;;;22.03
71640;BMP280;60912;48.968;10.124;2022-07-21T02:05:02;96980.19;;;21.97
71640;BMP280;60912;48.968;10.124;2022-07-21T02:07:27;96986.53;;;21.98
71640;BMP280;60912;48.968;10.124;2022-07-21T02:09:53;96984.19;;;22.06
71640;BMP280;60912;48.968;10.124;2022-07-21T02:12:18;96975.03;;;22.05
71640;BMP280;60912;48.968;10.124;2022-07-21T02:14:43;96976.25;;;22.02
71640;BMP280;60912;48.968;10.124;2022-07-21T02:17:09;96978.34;;;22.02
71640;BMP280;60912;48.968;10.124;2022-07-21T02:19:34;96975.56;;;21.90
71640;BMP280;60912;48.968;10.124;2022-07-21T02:22:00;96993.25;;;21.67
71640;BMP280;60912;48.968;10.124;2022-07-21T02:24:25;97004.53;;;21.44
71640;BMP280;60912;48.968;10.124;2022-07-21T02:26:50;97008.41;;;21.39
71640;BMP280;60912;48.968;10.124;2022-07-21T02:29:16;97006.84;;;21.36
71640;BMP280;60912;48.968;10.124;2022-07-21T02:31:41;97009.97;;;21.54
71640;BMP280;60912;48.968;10.124;2022-07-21T02:34:06;97025.47;;;21.43
71640;BMP280;60912;48.968;10.124;2022-07-21T02:36:32;97043.28;;;21.24
71640;BMP280;60912;48.968;10.124;2022-07-21T02:38:58;97044.28;;;21.29
71640;BMP280;60912;48.968;10.124;2022-07-21T02:41:23;97047.53;;;21.25
71640;BMP280;60912;48.968;10.124;2022-07-21T02:43:49;97061.81;;;21.41
71640;BMP280;60912;48.968;10.124;2022-07-21T02:46:14;97062.31;;;21.49
71640;BMP280;60912;48.968;10.124;2022-07-21T02:48:39;97074.00;;;21.46
71640;BMP280;60912;48.968;10.124;2022-07-21T02:51:05;97090.72;;;21.44
71640;BMP280;60912;48.968;10.124;2022-07-21T02:53:30;97089.47;;;21.23
71640;BMP280;60912;48.968;10.124;2022-07-21T02:55:55;97083.53;;;21.29
71640;BMP280;60912;48.968;10.124;2022-07-21T02:58:25;97070.06;;;20.93
71640;BMP280;60912;48.968;10.124;2022-07-21T03:03:21;97083.66;;;21.08
71640;BMP280;60912;48.968;10.124;2022-07-21T03:05:49;97088.50;;;21.07
71640;BMP280;60912;48.968;10.124;2022-07-21T03:08:15;97065.84;;;21.15
71640;BMP280;60912;48.968;10.124;2022-07-21T03:10:41;97046.22;;;21.26
71640;BMP280;60912;48.968;10.124;2022-07-21T03:13:07;97048.03;;;21.45
71640;BMP280;60912;48.968;10.124;2022-07-21T03:15:34;97036.69;;;21.55
71640;BMP280;60912;48.968;10.124;2022-07-21T03:17:59;97032.03;;;21.48
71640;BMP280;60912;48.968;10.124;2022-07-21T03:20:30;97036.69;;;21.55
71640;BMP280;60912;48.968;10.124;2022-07-21T03:22:57;97038.88;;;21.56
71640;BMP280;60912;48.968;10.124;2022-07-21T03:25:22;97055.81;;;21.58
71640;BMP280;60912;48.968;10.124;2022-07-21T03:27:49;97037.88;;;21.63
71640;BMP280;60912;48.968;10.124;2022-07-21T03:30:15;97041.25;;;21.73
71640;BMP280;60912;48.968;10.124;2022-07-21T03:32:40;97046.66;;;21.69
71640;BMP280;60912;48.968;10.124;2022-07-21T03:35:07;97050.56;;;21.64
71640;BMP280;60912;48.968;10.124;2022-07-21T03:37:43;97062.28;;;21.61
71640;BMP280;60912;48.968;10.124;2022-07-21T03:40:11;97054.56;;;21.61
71640;BMP280;60912;48.968;10.124;2022-07-21T03:42:37;97055.44;;;21.64
71640;BMP280;60912;48.968;10.124;2022-07-21T03:45:03;97050.09;;;21.68
71640;BMP280;60912;48.968;10.124;2022-07-21T03:47:28;97045.53;;;21.74
71640;BMP280;60912;48.968;10.124;2022-07-21T03:49:53;97053.41;;;21.89
71640;BMP280;60912;48.968;10.124;2022-07-21T03:52:19;97053.41;;;21.89
71640;BMP280;60912;48.968;10.124;2022-07-21T03:54:44;97055.91;;;21.83
71640;BMP280;60912;48.968;10.124;2022-07-21T03:57:09;97052.72;;;21.77
71640;BMP280;60912;48.968;10.124;2022-07-21T03:59:35;97056.84;;;21.88
71640;BMP280;60912;48.968;10.124;2022-07-21T04:02:00;97052.22;;;21.81
71640;BMP280;60912;48.968;10.124;2022-07-21T04:04:26;97051.88;;;21.75
71640;BMP280;60912;48.968;10.124;2022-07-21T04:06:51;97063.22;;;21.77
71640;BMP280;60912;48.968;10.124;2022-07-21T04:09:16;97053.00;;;21.70
71640;BMP280;60912;48.968;10.124;2022-07-21T04:11:43;97059.94;;;21.80
71640;BMP280;60912;48.968;10.124;2022-07-21T04:14:08;97065.16;;;21.74
71640;BMP280;60912;48.968;10.124;2022-07-21T04:16:33;97077.72;;;21.73
71640;BMP280;60912;48.968;10.124;2022-07-21T04:18:59;97072.50;;;21.79
71640;BMP280;60912;48.968;10.124;2022-07-21T04:21:24;97082.25;;;21.78
71640;BMP280;60912;48.968;10.124;2022-07-21T04:23:49;97092.25;;;21.81
71640;BMP280;60912;48.968;10.124;2022-07-21T04:26:15;97092.47;;;21.85
71640;BMP280;60912;48.968;10.124;2022-07-21T04:28:40;97088.56;;;21.90
71640;BMP280;60912;48.968;10.124;2022-07-21T04:31:06;97095.38;;;21.99
71640;BMP280;60912;48.968;10.124;2022-07-21T04:33:31;97092.31;;;22.07
71640;BMP280;60912;48.968;10.124;2022-07-21T04:35:56;97101.09;;;22.01
71640;BMP280;60912;48.968;10.124;2022-07-21T04:38:22;97101.72;;;22.00
71640;BMP280;60912;48.968;10.124;2022-07-21T04:40:47;97104.88;;;22.06
71640;BMP280;60912;48.968;10.124;2022-07-21T04:43:12;97104.41;;;22.09
71640;BMP280;60912;48.968;10.124;2022-07-21T04:45:38;97098.03;;;22.09
71640;BMP280;60912;48.968;10.124;2022-07-21T04:48:03;97104.66;;;22.02
71640;BMP280;60912;48.968;10.124;2022-07-21T04:50:30;97101.97;;;22.04
71640;BMP280;60912;48.968;10.124;2022-07-21T04:52:57;97109.03;;;22.05
71640;BMP280;60912;48.968;10.124;2022-07-21T04:55:24;97108.34;;;21.81
71640;BMP280;60912;48.968;10.124;2022-07-21T04:57:50;97114.34;;;21.75
71640;BMP280;60912;48.968;10.124;2022-07-21T05:00:20;97120.06;;;21.77
71640;BMP280;60912;48.968;10.124;2022-07-21T05:02:48;97114.72;;;21.70
71640;BMP280;60912;48.968;10.124;2022-07-21T05:05:13;97124.09;;;21.74
71640;BMP280;60912;48.968;10.124;2022-07-21T05:07:39;97121.19;;;21.72
71640;BMP280;60912;48.968;10.124;2022-07-21T05:10:10;97133.50;;;21.79
71640;BMP280;60912;48.968;10.124;2022-07-21T05:12:36;97131.03;;;21.85
71640;BMP280;60912;48.968;10.124;2022-07-21T05:15:05;97140.09;;;21.83
71640;BMP280;60912;48.968;10.124;2022-07-21T05:17:31;97135.94;;;21.84
71640;BMP280;60912;48.968;10.124;2022-07-21T05:19:56;97129.81;;;21.88
71640;BMP280;60912;48.968;10.124;2022-07-21T05:22:22;97132.88;;;21.92
71640;BMP280;60912;48.968;10.124;2022-07-21T05:24:47;97132.88;;;21.92
71640;BMP280;60912;48.968;10.124;2022-07-21T05:27:12;97131.03;;;21.73
71640;BMP280;60912;48.968;10.124;2022-07-21T05:29:38;97136.66;;;21.73
71640;BMP280;60912;48.968;10.124;2022-07-21T05:32:04;97134.47;;;21.83
71640;BMP280;60912;48.968;10.124;2022-07-21T05:34:29;97136.16;;;21.77
71640;BMP280;60912;48.968;10.124;2022-07-21T05:36:54;97130.81;;;21.69
71640;BMP280;60912;48.968;10.124;2022-07-21T05:39:20;97138.13;;;21.74
71640;BMP280;60912;48.968;10.124;2022-07-21T05:41:45;97146.94;;;21.80
71640;BMP280;60912;48.968;10.124;2022-07-21T05:44:11;97147.66;;;21.92
71640;BMP280;60912;48.968;10.124;2022-07-21T05:46:36;97145.41;;;22.03
71640;BMP280;60912;48.968;10.124;2022-07-21T05:49:02;97149.31;;;22.09
71640;BMP280;60912;48.968;10.124;2022-07-21T05:51:27;97142.69;;;22.16
71640;BMP280;60912;48.968;10.124;2022-07-21T05:53:53;97146.34;;;22.19
71640;BMP280;60912;48.968;10.124;2022-07-21T05:56:18;97139.00;;;22.25
71640;BMP280;60912;48.968;10.124;2022-07-21T05:58:44;97143.38;;;22.28
71640;BMP280;60912;48.968;10.124;2022-07-21T06:01:09;97145.25;;;22.49
71640;BMP280;60912;48.968;10.124;2022-07-21T06:03:48;97143.63;;;22.69
71640;BMP280;60912;48.968;10.124;2022-07-21T06:06:16;97138.63;;;22.81
71640;BMP280;60912;48.968;10.124;2022-07-21T06:08:42;97153.63;;;23.25
71640;BMP280;60912;48.968;10.124;2022-07-21T06:11:09;97146.47;;;23.62
71640;BMP280;60912;48.968;10.124;2022-07-21T06:13:35;97137.63;;;23.68
71640;BMP280;60912;48.968;10.124;2022-07-21T06:16:02;97132.50;;;23.78
71640;BMP280;60912;48.968;10.124;2022-07-21T06:18:28;97138.25;;;23.94
71640;BMP280;60912;48.968;10.124;2022-07-21T06:20:53;97149.00;;;23.97
71640;BMP280;60912;48.968;10.124;2022-07-21T06:23:19;97152.31;;;23.80
71640;BMP280;60912;48.968;10.124;2022-07-21T06:25:44;97156.38;;;23.77
71640;BMP280;60912;48.968;10.124;2022-07-21T06:28:10;97161.16;;;23.88
71640;BMP280;60912;48.968;10.124;2022-07-21T06:30:35;97167.31;;;23.98
71640;BMP280;60912;48.968;10.124;2022-07-21T06:33:00;97165.84;;;24.11
71640;BMP280;60912;48.968;10.124;2022-07-21T06:35:26;97172.97;;;24.12
71640;BMP280;60912;48.968;10.124;2022-07-21T06:37:51;97172.84;;;23.69
71640;BMP280;60912;48.968;10.124;2022-07-21T06:40:17;97170.78;;;23.56
71640;BMP280;60912;48.968;10.124;2022-07-21T06:42:42;97178.16;;;23.77
71640;BMP280;60912;48.968;10.124;2022-07-21T06:45:08;97179.00;;;24.06
71640;BMP280;60912;48.968;10.124;2022-07-21T06:47:33;97190.88;;;24.18
71640;BMP280;60912;48.968;10.124;2022-07-21T06:49:59;97181.69;;;24.18
71640;BMP280;60912;48.968;10.124;2022-07-21T06:52:31;97182.91;;;24.29
71640;BMP280;60912;48.968;10.124;2022-07-21T06:54:57;97192.44;;;23.94
71640;BMP280;60912;48.968;10.124;2022-07-21T06:57:22;97193.91;;;24.23
71640;BMP280;60912;48.968;10.124;2022-07-21T06:59:48;97196.03;;;24.38
71640;BMP280;60912;48.968;10.124;2022-07-21T07:02:13;97192.38;;;24.49
71640;BMP280;60912;48.968;10.124;2022-07-21T07:04:39;97192.22;;;24.60
71640;BMP280;60912;48.968;10.124;2022-07-21T07:07:04;97193.50;;;25.02
71640;BMP280;60912;48.968;10.124;2022-07-21T07:09:30;97188.31;;;25.28
71640;BMP280;60912;48.968;10.124;2022-07-21T07:11:55;97186.94;;;26.09
71640;BMP280;60912;48.968;10.124;2022-07-21T07:14:32;97185.84;;;26.51
71640;BMP280;60912;48.968;10.124;2022-07-21T07:16:58;97194.84;;;27.01
71640;BMP280;60912;48.968;10.124;2022-07-21T07:19:23;97183.28;;;27.52
71640;BMP280;60912;48.968;10.124;2022-07-21T07:21:49;97180.00;;;27.59
71640;BMP280;60912;48.968;10.124;2022-07-21T07:24:14;97190.38;;;28.14
71640;BMP280;60912;48.968;10.124;2022-07-21T07:26:40;97191.47;;;28.05
71640;BMP280;60912;48.968;10.124;2022-07-21T07:29:05;97209.41;;;27.89
71640;BMP280;60912;48.968;10.124;2022-07-21T07:31:31;97202.53;;;28.18
71640;BMP280;60912;48.968;10.124;2022-07-21T07:33:56;97198.22;;;27.74
71640;BMP280;60912;48.968;10.124;2022-07-21T07:36:23;97204.09;;;27.60
71640;BMP280;60912;48.968;10.124;2022-07-21T07:38:49;97203.56;;;27.66
71640;BMP280;60912;48.968;10.124;2022-07-21T07:41:17;97202.34;;;26.94
71640;BMP280;60912;48.968;10.124;2022-07-21T07:43:42;97200.19;;;26.93
71640;BMP280;60912;48.968;10.124;2022-07-21T07:46:07;97196.69;;;27.12
71640;BMP280;60912;48.968;10.124;2022-07-21T07:48:36;97197.28;;;27.48
71640;BMP280;60912;48.968;10.124;2022-07-21T07:51:02;97193.22;;;27.33
71640;BMP280;60912;48.968;10.124;2022-07-21T07:53:27;97188.19;;;27.12
71640;BMP280;60912;48.968;10.124;2022-07-21T07:55:52;97193.81;;;26.75
71640;BMP280;60912;48.968;10.124;2022-07-21T07:58:18;97195.41;;;26.27
71640;BMP280;60912;48.968;10.124;2022-07-21T08:00:43;97191.81;;;26.24
71640;BMP280;60912;48.968;10.124;2022-07-21T08:03:09;97198.88;;;26.08
71640;BMP280;60912;48.968;10.124;2022-07-21T08:05:34;97200.84;;;25.87
71640;BMP280;60912;48.968;10.124;2022-07-21T08:07:59;97198.56;;;26.17
71640;BMP280;60912;48.968;10.124;2022-07-21T08:10:25;97198.41;;;26.31
71640;BMP280;60912;48.968;10.124;2022-07-21T08:12:50;97193.00;;;26.72
71640;BMP280;60912;48.968;10.124;2022-07-21T08:15:16;97193.00;;;26.72
71640;BMP280;60912;48.968;10.124;2022-07-21T08:17:41;97205.75;;;27.28
71640;BMP280;60912;48.968;10.124;2022-07-21T08:20:07;97195.00;;;27.83
71640;BMP280;60912;48.968;10.124;2022-07-21T08:22:32;97190.00;;;28.04
71640;BMP280;60912;48.968;10.124;2022-07-21T08:24:58;97197.53;;;28.17
71640;BMP280;60912;48.968;10.124;2022-07-21T08:27:23;97195.84;;;28.08
71640;BMP280;60912;48.968;10.124;2022-07-21T08:29:49;97197.66;;;28.42
71640;BMP280;60912;48.968;10.124;2022-07-21T08:32:16;97197.19;;;28.26
71640;BMP280;60912;48.968;10.124;2022-07-21T08:34:43;97201.03;;;28.15
71640;BMP280;60912;48.968;10.124;2022-07-21T08:37:09;97204.41;;;27.68
71640;BMP280;60912;48.968;10.124;2022-07-21T08:39:36;97205.63;;;27.63
71640;BMP280;60912;48.968;10.124;2022-07-21T08:42:02;97203.22;;;27.75
71640;BMP280;60912;48.968;10.124;2022-07-21T08:44:27;97198.56;;;28.06
71640;BMP280;60912;48.968;10.124;2022-07-21T08:46:53;97197.38;;;28.32
71640;BMP280;60912;48.968;10.124;2022-07-21T08:49:20;97202.91;;;28.74
71640;BMP280;60912;48.968;10.124;2022-07-21T08:51:48;97206.41;;;29.19
71640;BMP280;60912;48.968;10.124;2022-07-21T08:54:14;97211.03;;;29.32
71640;BMP280;60912;48.968;10.124;2022-07-21T08:56:39;97204.41;;;29.24
71640;BMP280;60912;48.968;10.124;2022-07-21T08:59:04;97206.34;;;28.70
71640;BMP280;60912;48.968;10.124;2022-07-21T09:01:31;97213.59;;;27.88
71640;BMP280;60912;48.968;10.124;2022-07-21T09:06:55;97213.47;;;27.45
71640;BMP280;60912;48.968;10.124;2022-07-21T09:09:21;97209.66;;;27.78
71640;BMP280;60912;48.968;10.124;2022-07-21T09:11:48;97203.38;;;28.66
71640;BMP280;60912;48.968;10.124;2022-07-21T09:14:17;97205.41;;;28.40
71640;BMP280;60912;48.968;10.124;2022-07-21T09:16:55;97202.28;;;28.10
71640;BMP280;60912;48.968;10.124;2022-07-21T09:21:57;97206.91;;;29.12
71640;BMP280;60912;48.968;10.124;2022-07-21T09:24:24;97205.03;;;29.20
71640;BMP280;60912;48.968;10.124;2022-07-21T09:27:22;97202.78;;;29.43
71640;BMP280;60912;48.968;10.124;2022-07-21T09:29:52;97208.31;;;29.88
71640;BMP280;60912;48.968;10.124;2022-07-21T09:34:45;97202.06;;;28.69
71640;BMP280;60912;48.968;10.124;2022-07-21T09:37:11;97197.66;;;28.21
71640;BMP280;60912;48.968;10.124;2022-07-21T09:44:47;97201.16;;;28.41
71640;BMP280;60912;48.968;10.124;2022-07-21T09:47:15;97189.66;;;28.35
71640;BMP280;60912;48.968;10.124;2022-07-21T09:49:42;97198.59;;;28.49
71640;BMP280;60912;48.968;10.124;2022-07-21T09:54:49;97205.53;;;28.89
71640;BMP280;60912;48.968;10.124;2022-07-21T09:57:19;97196.69;;;29.26
71640;BMP280;60912;48.968;10.124;2022-07-21T09:59:46;97185.38;;;29.05
71640;BMP280;60912;48.968;10.124;2022-07-21T10:02:16;97194.53;;;29.51
71640;BMP280;60912;48.968;10.124;2022-07-21T10:04:43;97189.22;;;29.39
71640;BMP280;60912;48.968;10.124;2022-07-21T10:07:09;97189.69;;;29.06
71640;BMP280;60912;48.968;10.124;2022-07-21T10:09:35;97189.00;;;29.07
71640;BMP280;60912;48.968;10.124;2022-07-21T10:12:01;97196.69;;;29.80
71640;BMP280;60912;48.968;10.124;2022-07-21T10:14:27;97190.31;;;29.54
71640;BMP280;60912;48.968;10.124;2022-07-21T10:16:52;97192.00;;;29.63
71640;BMP280;60912;48.968;10.124;2022-07-21T10:19:35;97183.00;;;29.45
71640;BMP280;60912;48.968;10.124;2022-07-21T10:24:42;97189.09;;;29.88
71640;BMP280;60912;48.968;10.124;2022-07-21T10:27:12;97191.84;;;30.73
71640;BMP280;60912;48.968;10.124;2022-07-21T10:32:16;97186.69;;;30.34
71640;BMP280;60912;48.968;10.124;2022-07-21T10:34:42;97192.22;;;29.45
71640;BMP280;60912;48.968;10.124;2022-07-21T10:37:12;97192.34;;;29.23
71640;BMP280;60912;48.968;10.124;2022-07-21T10:39:56;97189.56;;;29.25
71640;BMP280;60912;48.968;10.124;2022-07-21T10:42:21;97199.59;;;29.82
71640;BMP280;60912;48.968;10.124;2022-07-21T10:44:47;97187.69;;;30.17
71640;BMP280;60912;48.968;10.124;2022-07-21T10:47:19;97192.94;;;29.99
71640;BMP280;60912;48.968;10.124;2022-07-21T10:57:35;97184.19;;;29.63
71640;BMP280;60912;48.968;10.124;2022-07-21T11:00:23;97184.31;;;29.42
71640;BMP280;60912;48.968;10.124;2022-07-21T11:02:55;97184.56;;;29.77
71640;BMP280;60912;48.968;10.124;2022-07-21T11:05:21;97170.44;;;30.09
71640;BMP280;60912;48.968;10.124;2022-07-21T11:08:18;97167.28;;;30.56
71640;BMP280;60912;48.968;10.124;2022-07-21T11:10:51;97161.53;;;30.54
71640;BMP280;60912;48.968;10.124;2022-07-21T11:13:18;97162.63;;;30.39
71640;BMP280;60912;48.968;10.124;2022-07-21T11:18:18;97149.03;;;29.76
71640;BMP280;60912;48.968;10.124;2022-07-21T11:20:44;97158.47;;;29.31
71640;BMP280;60912;48.968;10.124;2022-07-21T11:23:34;97158.84;;;29.99
71640;BMP280;60912;48.968;10.124;2022-07-21T11:26:00;97141.53;;;30.50
71640;BMP280;60912;48.968;10.124;2022-07-21T11:28:25;97144.06;;;30.36
71640;BMP280;60912;48.968;10.124;2022-07-21T11:31:26;97141.25;;;30.70
71640;BMP280;60912;48.968;10.124;2022-07-21T11:33:50;97135.03;;;30.14
71640;BMP280;60912;48.968;10.124;2022-07-21T11:36:30;97139.78;;;29.22
71640;BMP280;60912;48.968;10.124;2022-07-21T11:39:02;97136.31;;;29.00
71640;BMP280;60912;48.968;10.124;2022-07-21T11:41:28;97138.88;;;29.42
71640;BMP280;60912;48.968;10.124;2022-07-21T11:43:53;97131.63;;;29.92
71640;BMP280;60912;48.968;10.124;2022-07-21T11:46:19;97142.25;;;30.51
71640;BMP280;60912;48.968;10.124;2022-07-21T11:48:44;97137.31;;;30.51
71640;BMP280;60912;48.968;10.124;2022-07-21T11:51:11;97130.16;;;31.20
71640;BMP280;60912;48.968;10.124;2022-07-21T11:53:43;97127.19;;;30.44
71640;BMP280;60912;48.968;10.124;2022-07-21T11:56:15;97121.00;;;30.56
71640;BMP280;60912;48.968;10.124;2022-07-21T11:58:42;97120.28;;;30.22
71640;BMP280;60912;48.968;10.124;2022-07-21T12:01:09;97122.09;;;30.09
71640;BMP280;60912;48.968;10.124;2022-07-21T12:03:46;97126.50;;;29.84
71640;BMP280;60912;48.968;10.124;2022-07-21T12:06:13;97123.19;;;29.39
71640;BMP280;60912;48.968;10.124;2022-07-21T12:08:38;97129.06;;;28.24
71640;BMP280;60912;48.968;10.124;2022-07-21T12:11:17;97125.88;;;28.36
71640;BMP280;60912;48.968;10.124;2022-07-21T12:14:03;97114.28;;;29.24
71640;BMP280;60912;48.968;10.124;2022-07-21T12:16:28;97111.78;;;29.94
71640;BMP280;60912;48.968;10.124;2022-07-21T12:19:10;97104.97;;;30.05
71640;BMP280;60912;48.968;10.124;2022-07-21T12:21:47;97115.22;;;29.88
71640;BMP280;60912;48.968;10.124;2022-07-21T12:24:13;97104.56;;;29.89
71640;BMP280;60912;48.968;10.124;2022-07-21T12:26:38;97111.31;;;29.46
71640;BMP280;60912;48.968;10.124;2022-07-21T12:29:04;97112.03;;;29.74
71640;BMP280;60912;48.968;10.124;2022-07-21T12:31:32;97109.56;;;29.61
71640;BMP280;60912;48.968;10.124;2022-07-21T12:34:14;97109.38;;;29.82
71640;BMP280;60912;48.968;10.124;2022-07-21T12:36:48;97115.53;;;29.73
71640;BMP280;60912;48.968;10.124;2022-07-21T12:41:44;97114.00;;;29.68
71640;BMP280;60912;48.968;10.124;2022-07-21T12:44:10;97111.06;;;30.23
71640;BMP280;60912;48.968;10.124;2022-07-21T12:46:36;97108.25;;;30.25
71640;BMP280;60912;48.968;10.124;2022-07-21T12:49:05;97104.38;;;30.42
71640;BMP280;60912;48.968;10.124;2022-07-21T12:51:34;97101.22;;;29.96
71640;BMP280;60912;48.968;10.124;2022-07-21T12:54:00;97107.31;;;29.85
71640;BMP280;60912;48.968;10.124;2022-07-21T12:56:28;97111.94;;;29.70
71640;BMP280;60912;48.968;10.124;2022-07-21T12:58:55;97103.28;;;29.66
71640;BMP280;60912;48.968;10.124;2022-07-21T13:01:22;97099.91;;;30.01
71640;BMP280;60912;48.968;10.124;2022-07-21T13:03:48;97096.31;;;29.99
71640;BMP280;60912;48.968;10.124;2022-07-21T13:06:14;97102.25;;;29.81
71640;BMP280;60912;48.968;10.124;2022-07-21T13:08:43;97092.31;;;29.82
71640;BMP280;60912;48.968;10.124;2022-07-21T13:11:10;97096.94;;;29.68
71640;BMP280;60912;48.968;10.124;2022-07-21T13:13:37;97099.75;;;29.66
71640;BMP280;60912;48.968;10.124;2022-07-21T13:16:03;97097.31;;;29.26
71640;BMP280;60912;48.968;10.124;2022-07-21T13:18:29;97102.00;;;29.44
71640;BMP280;60912;48.968;10.124;2022-07-21T13:20:54;97095.22;;;30.14
71640;BMP280;60912;48.968;10.124;2022-07-21T13:23:19;97093.44;;;29.69
71640;BMP280;60912;48.968;10.124;2022-07-21T13:25:46;97091.78;;;29.32
71640;BMP280;60912;48.968;10.124;2022-07-21T13:28:12;97093.91;;;29.06
71640;BMP280;60912;48.968;10.124;2022-07-21T13:30:38;97087.44;;;29.29
71640;BMP280;60912;48.968;10.124;2022-07-21T13:33:03;97086.88;;;29.63
71640;BMP280;60912;48.968;10.124;2022-07-21T13:35:29;97077.75;;;29.96
71640;BMP280;60912;48.968;10.124;2022-07-21T13:37:56;97079.38;;;30.05
71640;BMP280;60912;48.968;10.124;2022-07-21T13:40:22;97080.81;;;30.06
71640;BMP280;60912;48.968;10.124;2022-07-21T13:42:48;97082.75;;;29.97
71640;BMP280;60912;48.968;10.124;2022-07-21T13:45:13;97082.78;;;29.99
71640;BMP280;60912;48.968;10.124;2022-07-21T13:47:40;97082.03;;;29.97
71640;BMP280;60912;48.968;10.124;2022-07-21T13:50:05;97094.97;;;30.02
71640;BMP280;60912;48.968;10.124;2022-07-21T13:52:32;97085.84;;;29.78
71640;BMP280;60912;48.968;10.124;2022-07-21T13:54:58;97080.91;;;29.80
71640;BMP280;60912;48.968;10.124;2022-07-21T13:57:24;97086.25;;;29.66
71640;BMP280;60912;48.968;10.124;2022-07-21T13:59:49;97087.03;;;29.69
71640;BMP280;60912;48.968;10.124;2022-07-21T14:02:15;97087.50;;;29.59
71640;BMP280;60912;48.968;10.124;2022-07-21T14:04:41;97086.72;;;29.03
71640;BMP280;60912;48.968;10.124;2022-07-21T14:07:06;97084.84;;;28.86
71640;BMP280;60912;48.968;10.124;2022-07-21T14:09:32;97080.09;;;29.48
71640;BMP280;60912;48.968;10.124;2022-07-21T14:11:57;97078.91;;;29.85
71640;BMP280;60912;48.968;10.124;2022-07-21T14:14:23;97084.53;;;30.13
71640;BMP280;60912;48.968;10.124;2022-07-21T14:16:51;97074.78;;;30.22
71640;BMP280;60912;48.968;10.124;2022-07-21T14:19:18;97074.09;;;30.23
71640;BMP280;60912;48.968;10.124;2022-07-21T14:21:44;97068.31;;;30.51
71640;BMP280;60912;48.968;10.124;2022-07-21T14:24:10;97062.59;;;30.87
71640;BMP280;60912;48.968;10.124;2022-07-21T14:26:54;97060.75;;;30.63
71640;BMP280;60912;48.968;10.124;2022-07-21T14:29:19;97060.66;;;30.26
71640;BMP280;60912;48.968;10.124;2022-07-21T14:31:44;97067.22;;;30.34